KSPF

Black Hills-Clyde Ice Field Airport

Spearfish, South Dakota, USA
METAR KSPF 211435Z AUTO 05004KT 10SM CLR 14/08 A2998 RMK AO2
Observed Flight Rules
May-21 @ 14:35 UTC (27 minutes ago) Visual Flight Rules
Wind Visibility Clouds
50° at 4 knots 10 miles
  • Clear skies
Temperatures Readings
Current 14°C / 57°F
Dewpoint 8°C / 46°F
Humidity 67%
Altimeter 29.98" Hg
Pressure 1015 hPa
Elevation 1188
METAR KSPF 211435Z AUTO 05004KT 10SM CLR 14/08 A2998 RMK AO2
Observed Flight Rules
May-21 @ 14:35 UTC
(27 minutes ago)
VFR
Wind Visibility
50° at 4 knots 10 miles
Clouds
  • Clear skies
Temperature Dewpoint
14°C / 57°F 8°C / 46°F
Humidity Altimeter Pressure
67% 29.98" Hg 1015 hPa